Terminal Aerodrome Forecast
Issued by NWS Bismarck, ND

Home | Current Version | Previous Version | Graphics & Text | Print | Product List | Glossary On
Versions: 1 2 3 4 5 6 7 8 9 10 11 12 13
418
FTUS43 KBIS 232320
TAFBIS
TAF
KBIS 232320Z 2400/2424 13005KT P6SM SKC
     FM241200 14008KT P6SM FEW110 SCT250
     FM241500 15012KT P6SM FEW110 SCT250=

USA.gov is the U.S. government's official web portal to all federal, state and local government web resources and services.